Time;durP1;ratioP1;P1;durP2;ratioP2;P2;SDS_P1;SDS_P2;PMS_P1;PMS_P2;Temp;Humidity;BMP_temperature;BMP_pressure;BME280_temperature;BME280_humidity;BME280_pressure;Samples;Min_cycle;Max_cycle;Signal;HPM_P1;HPM_P2
2024/01/30 05:05:56;;;;;;;0.38;0.38;;;1.60;99.90;;;;;;5740145;23;20223;-67
2024/01/30 05:08:21;;;;;;;0.30;0.30;;;1.50;99.90;;;;;;4975945;28;20570;-65
2024/01/30 05:10:47;;;;;;;0.37;0.37;;;1.60;99.90;;;;;;4974915;28;20177;-66
2024/01/30 05:13:13;;;;;;;0.40;0.40;;;1.60;99.90;;;;;;4974536;28;20586;-66
2024/01/30 05:15:39;;;;;;;0.40;0.40;;;1.70;99.90;;;;;;4967912;28;20291;-67
2024/01/30 05:18:05;;;;;;;0.40;0.40;;;1.60;99.90;;;;;;4955187;28;20259;-66
2024/01/30 05:20:30;;;;;;;0.30;0.30;;;1.70;99.90;;;;;;4954906;28;20291;-65
2024/01/30 05:22:56;;;;;;;0.40;0.40;;;1.70;99.90;;;;;;4953885;28;20567;-66
2024/01/30 05:25:21;;;;;;;0.40;0.40;;;1.60;99.90;;;;;;4954551;28;20662;-67
2024/01/30 05:27:47;;;;;;;0.40;0.40;;;1.60;99.90;;;;;;4954974;28;20602;-65
2024/01/30 05:30:13;;;;;;;0.40;0.40;;;1.60;99.90;;;;;;4954852;28;20180;-66
2024/01/30 05:32:39;;;;;;;0.30;0.30;;;1.60;99.90;;;;;;4954747;28;20247;-67
2024/01/30 05:35:05;;;;;;;0.50;0.50;;;1.50;99.90;;;;;;4953836;28;20413;-66
2024/01/30 05:37:30;;;;;;;0.40;0.40;;;1.60;99.90;;;;;;4954640;28;20180;-66
2024/01/30 05:39:56;;;;;;;0.30;0.30;;;1.60;99.90;;;;;;4955032;28;20480;-65
2024/01/30 05:42:21;;;;;;;0.30;0.30;;;1.60;99.90;;;;;;4955050;28;20165;-66
2024/01/30 05:44:47;;;;;;;0.33;0.33;;;1.50;99.90;;;;;;4954697;28;20283;-66
2024/01/30 05:47:13;;;;;;;0.40;0.40;;;1.60;99.90;;;;;;4954782;28;20196;-66
2024/01/30 05:49:39;;;;;;;0.30;0.30;;;1.50;99.90;;;;;;4955037;28;20255;-64
2024/01/30 05:52:05;;;;;;;0.40;0.40;;;1.60;99.90;;;;;;4953511;29;20643;-65
2024/01/30 05:54:30;;;;;;;0.50;0.50;;;1.60;99.90;;;;;;4954399;28;20416;-67
2024/01/30 05:56:56;;;;;;;0.53;0.53;;;1.60;99.90;;;;;;4954860;28;20215;-64
2024/01/30 05:59:21;;;;;;;0.30;0.30;;;1.60;99.90;;;;;;4954623;28;20195;-65
2024/01/30 06:01:48;;;;;;;0.40;0.40;;;1.60;99.90;;;;;;4954924;28;20173;-66
2024/01/30 06:04:14;;;;;;;0.40;0.40;;;1.60;99.90;;;;;;4954405;28;20168;-65
2024/01/30 06:06:40;;;;;;;0.40;0.40;;;1.60;99.90;;;;;;4954807;28;20232;-66
2024/01/30 06:09:05;;;;;;;0.33;0.33;;;1.60;99.90;;;;;;4954577;28;20173;-64
2024/01/30 06:11:31;;;;;;;0.40;0.40;;;1.60;99.90;;;;;;4954837;28;20412;-67
2024/01/30 06:13:57;;;;;;;0.50;0.50;;;1.60;99.90;;;;;;4954214;28;20176;-67
2024/01/30 06:16:22;;;;;;;0.40;0.40;;;1.70;99.90;;;;;;4954024;28;20223;-64
2024/01/30 06:18:48;;;;;;;0.40;0.40;;;1.70;99.90;;;;;;4954711;29;20224;-63
2024/01/30 06:21:16;;;;;;;0.40;0.40;;;1.70;99.90;;;;;;4954608;29;20235;-64
2024/01/30 06:23:42;;;;;;;0.30;0.30;;;1.80;99.90;;;;;;4954536;28;20223;-63
2024/01/30 06:26:07;;;;;;;0.40;0.40;;;1.80;99.90;;;;;;4954831;28;20189;-65
2024/01/30 06:28:33;;;;;;;0.40;0.40;;;1.80;99.90;;;;;;4958441;29;20173;-64
2024/01/30 06:31:01;;;;;;;0.40;0.40;;;1.70;99.90;;;;;;4958626;29;20176;-65
2024/01/30 06:33:26;;;;;;;0.40;0.40;;;1.80;99.90;;;;;;4958038;29;20268;-65
2024/01/30 06:35:52;;;;;;;0.37;0.37;;;1.80;99.90;;;;;;4957898;28;20630;-65
2024/01/30 06:38:17;;;;;;;0.30;0.30;;;1.80;99.90;;;;;;4957965;29;20177;-64
2024/01/30 06:40:43;;;;;;;4.37;2.83;;;1.80;99.90;;;;;;4957978;29;20667;-64
2024/01/30 06:43:09;;;;;;;0.40;0.40;;;1.80;99.90;;;;;;4957944;29;20172;-65
2024/01/30 06:45:35;;;;;;;0.40;0.40;;;1.70;99.90;;;;;;4957212;28;20264;-65
2024/01/30 06:48:00;;;;;;;0.30;0.30;;;1.80;99.90;;;;;;4958067;29;20424;-63
2024/01/30 06:50:26;;;;;;;0.30;0.30;;;1.80;99.90;;;;;;4957948;29;20419;-65
2024/01/30 06:52:52;;;;;;;0.30;0.30;;;1.80;99.90;;;;;;4956380;29;20447;-64
2024/01/30 06:55:18;;;;;;;0.33;0.33;;;1.90;99.90;;;;;;4957621;28;20520;-66
2024/01/30 06:57:43;;;;;;;0.60;0.60;;;1.90;99.90;;;;;;4957588;29;20200;-65
2024/01/30 07:00:10;;;;;;;0.43;0.43;;;1.90;99.90;;;;;;4957487;29;20586;-64
2024/01/30 07:02:36;;;;;;;0.43;0.43;;;2.00;99.90;;;;;;4956565;29;20180;-66
2024/01/30 07:05:02;;;;;;;0.40;0.40;;;2.00;99.90;;;;;;4956033;29;20168;-65
2024/01/30 07:07:28;;;;;;;0.50;0.50;;;2.00;99.90;;;;;;4957637;28;20738;-65
2024/01/30 07:09:56;;;;;;;0.30;0.30;;;2.00;99.90;;;;;;4957848;28;20173;-64
2024/01/30 07:12:24;;;;;;;0.30;0.30;;;2.00;99.90;;;;;;4955607;29;20424;-65
2024/01/30 07:14:50;;;;;;;0.40;0.40;;;2.10;99.90;;;;;;4955091;29;20256;-65
2024/01/30 07:17:16;;;;;;;0.40;0.40;;;2.00;99.90;;;;;;4956321;28;20204;-69
2024/01/30 07:19:41;;;;;;;0.30;0.30;;;2.10;99.90;;;;;;4949883;29;20464;-68
2024/01/30 07:22:08;;;;;;;0.73;0.73;;;2.20;99.90;;;;;;4953775;28;20469;-68
2024/01/30 07:24:33;;;;;;;0.30;0.30;;;2.20;99.90;;;;;;4955306;29;20665;-68
2024/01/30 07:26:59;;;;;;;0.60;0.60;;;2.30;99.90;;;;;;4956117;28;20349;-67
2024/01/30 07:29:25;;;;;;;0.50;0.50;;;2.40;99.90;;;;;;4956744;29;20506;-69
2024/01/30 07:31:50;;;;;;;0.40;0.40;;;2.50;99.90;;;;;;4956736;29;20188;-69
2024/01/30 07:34:16;;;;;;;0.37;0.37;;;2.70;99.90;;;;;;4955911;29;20643;-68
2024/01/30 07:36:42;;;;;;;0.40;0.40;;;2.80;99.90;;;;;;4955890;28;20252;-68
2024/01/30 07:39:07;;;;;;;0.40;0.40;;;3.00;99.90;;;;;;4955561;28;20469;-67
2024/01/30 07:41:33;;;;;;;0.30;0.30;;;3.20;99.90;;;;;;4956740;29;20176;-68
2024/01/30 07:43:59;;;;;;;0.40;0.40;;;3.50;99.90;;;;;;4956011;29;20253;-68
2024/01/30 07:46:24;;;;;;;0.30;0.30;;;3.80;99.90;;;;;;4955178;28;20569;-68
2024/01/30 07:48:53;;;;;;;0.30;0.30;;;4.00;99.90;;;;;;4956047;29;20172;-67
2024/01/30 07:51:18;;;;;;;0.30;0.30;;;4.20;99.90;;;;;;4954062;29;20176;-66
2024/01/30 07:53:45;;;;;;;0.67;0.67;;;4.30;99.90;;;;;;4955458;28;20594;-68
2024/01/30 07:56:11;;;;;;;0.30;0.30;;;4.30;99.90;;;;;;4952968;28;20196;-68
2024/01/30 07:58:37;;;;;;;0.40;0.40;;;4.40;99.90;;;;;;4955269;29;20183;-68
2024/01/30 08:01:03;;;;;;;0.30;0.30;;;4.50;99.90;;;;;;4957741;29;20468;-66
2024/01/30 08:03:28;;;;;;;0.40;0.40;;;4.50;99.90;;;;;;4955779;29;20226;-70
2024/01/30 08:05:55;;;;;;;0.30;0.30;;;4.60;99.90;;;;;;4953624;28;20199;-68
2024/01/30 08:08:20;;;;;;;0.40;0.40;;;4.50;99.90;;;;;;4955786;28;20235;-69
2024/01/30 08:10:46;;;;;;;0.40;0.40;;;4.60;99.90;;;;;;4956117;29;20259;-69
2024/01/30 08:13:12;;;;;;;0.40;0.40;;;4.60;99.90;;;;;;4955694;29;20666;-68
2024/01/30 08:15:37;;;;;;;0.30;0.30;;;4.60;99.90;;;;;;4955157;28;20211;-68
2024/01/30 08:18:04;;;;;;;0.30;0.30;;;4.70;99.90;;;;;;4955156;29;20177;-70
2024/01/30 08:20:30;;;;;;;0.40;0.40;;;4.80;99.90;;;;;;4954177;29;20207;-70
2024/01/30 08:22:56;;;;;;;0.30;0.30;;;5.00;99.90;;;;;;4955706;29;20683;-70
2024/01/30 08:25:21;;;;;;;0.32;0.32;;;5.20;99.90;;;;;;4954657;28;20195;-70
2024/01/30 08:27:47;;;;;;;0.33;0.33;;;5.30;99.90;;;;;;4954618;28;20264;-70
2024/01/30 08:30:13;;;;;;;0.40;0.40;;;5.30;99.90;;;;;;4955674;28;20686;-71
2024/01/30 08:32:38;;;;;;;0.50;0.50;;;5.50;99.90;;;;;;4955942;29;20223;-68
2024/01/30 08:35:04;;;;;;;0.30;0.30;;;5.80;99.90;;;;;;4951177;28;20428;-70
2024/01/30 08:37:30;;;;;;;0.40;0.40;;;6.10;99.90;;;;;;4955326;29;20651;-69
2024/01/30 08:39:56;;;;;;;0.30;0.30;;;6.60;99.90;;;;;;4954467;29;20475;-70
2024/01/30 08:42:22;;;;;;;0.50;0.50;;;7.10;99.90;;;;;;4953979;29;20197;-74
2024/01/30 08:44:49;;;;;;;0.60;0.60;;;7.70;99.90;;;;;;4953552;29;20241;-70
2024/01/30 08:47:16;;;;;;;0.30;0.30;;;8.20;99.90;;;;;;4954473;28;20196;-71
2024/01/30 08:49:44;;;;;;;0.57;0.57;;;8.50;99.90;;;;;;4954248;28;20890;-72
2024/01/30 08:52:10;;;;;;;0.30;0.30;;;9.00;99.90;;;;;;4954783;29;20806;-72
2024/01/30 08:54:36;;;;;;;0.30;0.30;;;9.60;99.90;;;;;;4954649;29;20439;-73
2024/01/30 08:57:01;;;;;;;1.50;0.60;;;10.20;99.90;;;;;;4953572;28;20441;-74
2024/01/30 08:59:27;;;;;;;0.30;0.30;;;10.80;99.90;;;;;;4954029;29;20250;-72
2024/01/30 09:01:55;;;;;;;0.37;0.37;;;11.30;99.40;;;;;;4955132;29;20188;-73
2024/01/30 09:04:21;;;;;;;0.30;0.30;;;11.90;98.80;;;;;;4954712;29;20182;-71
2024/01/30 09:06:47;;;;;;;4.30;0.50;;;12.40;96.60;;;;;;4954049;28;20534;-72
2024/01/30 09:09:14;;;;;;;0.30;0.20;;;12.80;95.20;;;;;;4954357;28;20402;-73
2024/01/30 09:11:40;;;;;;;0.57;0.57;;;12.90;94.40;;;;;;4954895;29;20430;-72
2024/01/30 09:14:05;;;;;;;0.30;0.20;;;12.90;93.60;;;;;;4955129;29;20729;-65
2024/01/30 09:16:31;;;;;;;0.30;0.30;;;12.80;92.80;;;;;;4953027;28;20208;-78
2024/01/30 09:18:57;;;;;;;0.30;0.30;;;12.60;93.20;;;;;;4954422;29;20654;-78
2024/01/30 09:21:23;;;;;;;0.30;0.30;;;12.50;93.40;;;;;;4937274;29;20565;-73
2024/01/30 09:23:48;;;;;;;0.30;0.30;;;12.40;93.70;;;;;;4954592;28;20184;-73
2024/01/30 09:26:14;;;;;;;0.40;0.40;;;12.20;93.80;;;;;;4954704;28;20278;-74
2024/01/30 09:28:42;;;;;;;0.50;0.40;;;12.40;94.00;;;;;;4952497;29;20180;-75
2024/01/30 09:31:12;;;;;;;1.30;1.20;;;12.50;93.60;;;;;;4953221;28;20195;-74
2024/01/30 09:33:38;;;;;;;1.27;0.50;;;12.50;93.70;;;;;;4953434;29;20412;-74
2024/01/30 09:36:05;;;;;;;0.60;0.60;;;12.60;93.60;;;;;;4954256;28;20439;-76
2024/01/30 09:38:31;;;;;;;0.30;0.30;;;12.70;93.50;;;;;;4953699;28;21225;-74
2024/01/30 09:41:03;;;;;;;0.30;0.20;;;12.90;93.10;;;;;;4952299;29;20460;-74
2024/01/30 09:43:33;;;;;;;0.30;0.30;;;13.10;92.70;;;;;;4954270;29;20171;-72
2024/01/30 09:46:00;;;;;;;0.30;0.30;;;13.20;92.90;;;;;;4954052;28;20471;-73
2024/01/30 09:48:26;;;;;;;0.30;0.30;;;13.40;93.00;;;;;;4952458;29;20395;-73
2024/01/30 09:50:53;;;;;;;0.53;0.53;;;13.60;92.10;;;;;;4953332;29;20391;-73
2024/01/30 09:53:20;;;;;;;0.30;0.30;;;13.80;91.90;;;;;;4954296;29;20421;-75
2024/01/30 09:55:46;;;;;;;0.30;0.30;;;14.10;91.70;;;;;;4954120;28;20501;-74
2024/01/30 09:58:13;;;;;;;0.50;0.50;;;14.40;91.00;;;;;;4954485;29;20750;-74
2024/01/30 10:00:38;;;;;;;0.30;0.30;;;14.70;90.30;;;;;;4953285;28;20502;-75
2024/01/30 10:03:04;;;;;;;0.40;0.30;;;14.90;89.60;;;;;;4958480;29;20872;-72
2024/01/30 10:05:34;;;;;;;0.60;0.60;;;14.80;88.40;;;;;;4956475;28;20208;-75
2024/01/30 10:07:59;;;;;;;0.30;0.30;;;14.60;87.90;;;;;;4958606;28;20429;-73
2024/01/30 10:10:25;;;;;;;0.30;0.30;;;14.30;88.70;;;;;;4957833;29;20802;-73
2024/01/30 10:12:53;;;;;;;0.30;0.30;;;14.00;89.80;;;;;;4957255;29;20648;-72
2024/01/30 10:15:19;;;;;;;0.87;0.87;;;13.80;90.10;;;;;;4957304;28;20531;-76
2024/01/30 10:17:46;;;;;;;0.60;0.40;;;13.80;90.40;;;;;;4957797;29;20416;-74
2024/01/30 10:20:13;;;;;;;0.30;0.30;;;13.90;90.30;;;;;;4957705;28;20205;-74
2024/01/30 10:22:42;;;;;;;1.27;0.83;;;13.90;90.40;;;;;;4957564;28;20408;-75
2024/01/30 10:25:09;;;;;;;0.30;0.30;;;13.90;90.50;;;;;;4957350;29;20467;-74
2024/01/30 10:27:34;;;;;;;0.30;0.30;;;14.00;91.00;;;;;;4958072;28;20423;-73
2024/01/30 10:30:00;;;;;;;0.40;0.40;;;14.30;90.50;;;;;;4941002;29;20429;-73
2024/01/30 10:32:26;;;;;;;0.30;0.30;;;14.50;90.20;;;;;;4957531;29;20184;-73
2024/01/30 10:34:52;;;;;;;0.30;0.30;;;14.60;90.30;;;;;;4957306;28;20202;-74
2024/01/30 10:37:21;;;;;;;0.30;0.30;;;14.70;89.40;;;;;;4946419;28;20432;-71
2024/01/30 10:39:47;;;;;;;0.30;0.30;;;14.60;89.10;;;;;;4960663;29;20203;-70
2024/01/30 10:42:14;;;;;;;1.80;1.53;;;14.60;89.10;;;;;;4959110;29;20415;-71
2024/01/30 10:45:08;;;;;;;0.30;0.30;;;14.50;89.00;;;;;;4955592;29;20561;-71
2024/01/30 10:47:37;;;;;;;0.47;0.47;;;14.20;89.90;;;;;;4955913;28;20517;-72
2024/01/30 10:50:03;;;;;;;1.23;0.57;;;13.90;90.40;;;;;;4957475;29;20404;-71
2024/01/30 10:52:29;;;;;;;0.90;0.53;;;13.70;90.60;;;;;;4957886;29;20420;-73
2024/01/30 10:54:56;;;;;;;0.47;0.47;;;13.50;90.90;;;;;;4953251;29;20781;-72
2024/01/30 10:57:26;;;;;;;0.50;0.50;;;13.40;91.30;;;;;;4955775;28;20596;-70
2024/01/30 11:00:00;;;;;;;0.30;0.30;;;13.50;91.60;;;;;;4957152;29;20545;-73
2024/01/30 11:02:26;;;;;;;0.50;0.50;;;13.40;91.80;;;;;;4957127;29;20415;-70
2024/01/30 11:04:57;;;;;;;0.30;0.30;;;13.30;92.20;;;;;;4955291;29;20431;-71
2024/01/30 11:07:28;;;;;;;0.30;0.30;;;13.30;92.10;;;;;;4957368;28;20438;-71
2024/01/30 11:10:03;;;;;;;0.40;0.40;;;13.20;92.10;;;;;;4957575;28;20389;-71
2024/01/30 11:12:40;;;;;;;0.30;0.30;;;13.10;91.90;;;;;;4957271;28;20405;-71
2024/01/30 11:15:07;;;;;;;0.33;0.33;;;13.00;92.10;;;;;;4958536;28;20918;-70
2024/01/30 11:17:49;;;;;;;0.30;0.30;;;12.90;92.30;;;;;;4960877;29;20854;-71
2024/01/30 11:20:16;;;;;;;0.40;0.40;;;12.90;92.60;;;;;;4960752;29;20524;-71
2024/01/30 11:22:46;;;;;;;0.30;0.30;;;12.90;92.60;;;;;;4960191;29;20421;-71
2024/01/30 11:25:16;;;;;;;0.30;0.30;;;13.00;92.60;;;;;;4961952;28;20429;-71
2024/01/30 11:27:43;;;;;;;0.40;0.40;;;13.00;92.70;;;;;;4958406;29;20432;-74
2024/01/30 11:30:09;;;;;;;0.67;0.67;;;13.10;92.60;;;;;;4957594;29;20444;-71
2024/01/30 11:32:34;;;;;;;0.40;0.40;;;13.20;92.70;;;;;;4958973;29;20408;-71
2024/01/30 11:35:00;;;;;;;0.30;0.30;;;13.20;92.80;;;;;;4951455;28;20640;-71
2024/01/30 11:37:27;;;;;;;0.30;0.30;;;13.10;92.80;;;;;;4957054;29;20203;-72
2024/01/30 11:39:54;;;;;;;0.50;0.50;;;13.10;92.70;;;;;;4945287;28;20197;-71
2024/01/30 11:42:26;;;;;;;0.40;0.40;;;13.10;92.80;;;;;;4961052;29;20426;-71
2024/01/30 11:44:52;;;;;;;0.37;0.37;;;13.10;92.90;;;;;;4959780;28;20417;-70
2024/01/30 11:47:18;;;;;;;0.30;0.20;;;13.00;93.00;;;;;;4957449;28;20425;-72
2024/01/30 11:49:44;;;;;;;0.40;0.40;;;13.00;93.10;;;;;;4959117;29;20621;-71
2024/01/30 11:52:10;;;;;;;0.30;0.30;;;12.90;93.30;;;;;;4959624;29;20193;-73
2024/01/30 11:54:35;;;;;;;0.50;0.50;;;13.00;93.50;;;;;;4956690;29;20412;-73
2024/01/30 11:57:01;;;;;;;0.83;0.83;;;13.10;93.10;;;;;;4957003;28;20203;-71
2024/01/30 11:59:27;;;;;;;0.30;0.30;;;13.10;93.10;;;;;;4955414;29;20264;-71
2024/01/30 12:01:52;;;;;;;0.70;0.70;;;13.20;92.90;;;;;;4955804;29;20282;-71
2024/01/30 12:04:18;;;;;;;1.47;0.60;;;13.10;92.70;;;;;;4955889;29;20178;-71
2024/01/30 12:06:44;;;;;;;0.30;0.30;;;13.10;92.40;;;;;;4956101;28;20283;-72
2024/01/30 12:09:11;;;;;;;0.30;0.20;;;13.20;92.40;;;;;;4956710;28;20181;-71
2024/01/30 12:11:48;;;;;;;0.30;0.30;;;13.20;92.10;;;;;;4956734;29;20413;-71
2024/01/30 12:14:14;;;;;;;0.40;0.40;;;13.30;92.20;;;;;;4954860;29;21091;-72
2024/01/30 12:16:41;;;;;;;0.33;0.33;;;13.30;91.90;;;;;;4955584;28;20443;-73
2024/01/30 12:19:07;;;;;;;0.30;0.30;;;13.40;92.00;;;;;;4956124;29;20820;-72
2024/01/30 12:21:34;;;;;;;0.30;0.30;;;13.40;92.40;;;;;;4955847;29;20549;-71
2024/01/30 12:24:00;;;;;;;1.43;0.40;;;13.40;92.20;;;;;;4955666;28;20424;-70
2024/01/30 12:26:25;;;;;;;0.30;0.30;;;13.50;92.20;;;;;;4954989;28;20973;-70
2024/01/30 12:28:54;;;;;;;0.30;0.30;;;13.50;92.20;;;;;;4955764;29;20504;-70
2024/01/30 12:31:27;;;;;;;0.30;0.30;;;13.60;92.20;;;;;;4956219;29;20501;-70
2024/01/30 12:33:53;;;;;;;0.60;0.60;;;13.60;92.30;;;;;;4955940;29;20488;-71
2024/01/30 12:36:19;;;;;;;0.30;0.20;;;13.70;92.40;;;;;;4955317;28;20914;-71
2024/01/30 12:38:44;;;;;;;0.30;0.30;;;13.70;92.40;;;;;;4955956;28;20631;-73
2024/01/30 12:41:10;;;;;;;0.40;0.40;;;13.70;92.40;;;;;;4969045;28;20224;-70
2024/01/30 12:43:36;;;;;;;0.30;0.27;;;13.70;92.40;;;;;;4975165;28;20200;-71
2024/01/30 12:46:03;;;;;;;0.37;0.37;;;13.70;92.40;;;;;;4974730;28;20466;-72
2024/01/30 12:48:29;;;;;;;0.53;0.40;;;13.60;92.70;;;;;;4958495;28;20642;-71
2024/01/30 12:50:56;;;;;;;0.93;0.40;;;13.60;92.60;;;;;;4955590;29;20418;-70
2024/01/30 12:53:21;;;;;;;0.50;0.50;;;13.60;92.50;;;;;;4955836;29;20405;-72
2024/01/30 12:55:47;;;;;;;0.30;0.30;;;13.60;92.40;;;;;;4955223;28;20441;-71
2024/01/30 12:58:13;;;;;;;0.30;0.30;;;13.60;92.50;;;;;;4969805;28;20307;-72
2024/01/30 13:00:38;;;;;;;0.30;0.30;;;13.60;92.30;;;;;;4973352;28;20209;-71
2024/01/30 13:03:04;;;;;;;0.43;0.43;;;13.60;91.70;;;;;;4975161;28;20166;-71
2024/01/30 13:05:30;;;;;;;0.30;0.30;;;13.70;91.80;;;;;;4974333;28;20260;-71
2024/01/30 13:07:57;;;;;;;0.30;0.30;;;13.70;91.90;;;;;;4974271;28;20427;-70
2024/01/30 13:10:23;;;;;;;0.47;0.47;;;13.70;92.00;;;;;;4974674;28;20168;-70
2024/01/30 13:12:48;;;;;;;0.30;0.30;;;13.80;92.20;;;;;;4974770;28;20414;-72
2024/01/30 13:15:14;;;;;;;0.30;0.30;;;13.70;93.30;;;;;;4959019;28;20476;-72
2024/01/30 13:17:42;;;;;;;0.33;0.33;;;13.70;93.60;;;;;;4955529;29;20173;-71
2024/01/30 13:20:08;;;;;;;0.30;0.23;;;13.70;93.30;;;;;;4955376;28;20452;-70
2024/01/30 13:22:34;;;;;;;0.50;0.50;;;13.70;92.80;;;;;;4955455;29;20756;-73
2024/01/30 13:24:59;;;;;;;0.50;0.50;;;13.60;93.00;;;;;;4966437;28;20415;-72
2024/01/30 13:27:25;;;;;;;0.40;0.40;;;13.50;95.80;;;;;;4974746;28;20253;-73
2024/01/30 13:29:51;;;;;;;0.50;0.50;;;13.40;97.50;;;;;;4974814;28;20532;-71
2024/01/30 13:32:16;;;;;;;0.40;0.40;;;13.40;97.80;;;;;;4974625;28;20172;-71
2024/01/30 13:34:42;;;;;;;0.30;0.20;;;13.30;98.20;;;;;;4964658;28;20534;-71
2024/01/30 13:37:08;;;;;;;0.30;0.30;;;13.20;98.40;;;;;;4954838;28;20193;-73
2024/01/30 13:39:34;;;;;;;0.53;0.53;;;13.20;98.70;;;;;;4955330;29;20430;-73
2024/01/30 13:42:00;;;;;;;0.40;0.40;;;13.20;99.10;;;;;;4955157;29;20491;-73
2024/01/30 13:44:26;;;;;;;0.30;0.30;;;13.20;98.70;;;;;;4954231;28;20173;-71
2024/01/30 13:46:52;;;;;;;0.47;0.40;;;13.20;98.00;;;;;;4954824;28;20193;-72
2024/01/30 13:49:17;;;;;;;0.50;0.47;;;13.10;98.10;;;;;;4953591;29;20770;-74
2024/01/30 13:51:43;;;;;;;0.97;0.87;;;13.10;98.10;;;;;;4955169;29;20172;-73
2024/01/30 13:54:08;;;;;;;0.50;0.50;;;13.10;97.90;;;;;;4954234;28;20177;-71
2024/01/30 13:56:37;;;;;;;0.30;0.30;;;13.20;97.70;;;;;;4953288;28;20209;-71
2024/01/30 13:59:04;;;;;;;0.30;0.30;;;13.20;96.80;;;;;;4953340;29;20185;-73
2024/01/30 14:01:31;;;;;;;2.53;0.60;;;13.20;96.70;;;;;;4954133;29;20467;-69
2024/01/30 14:03:56;;;;;;;0.30;0.30;;;13.20;97.00;;;;;;4954573;28;20424;-73
2024/01/30 14:06:22;;;;;;;0.30;0.30;;;13.20;96.60;;;;;;4954161;28;20483;-70
2024/01/30 14:08:47;;;;;;;0.40;0.40;;;13.20;96.50;;;;;;4954452;29;20219;-68
2024/01/30 14:11:13;;;;;;;0.37;0.30;;;13.30;96.60;;;;;;4954640;29;20180;-69
2024/01/30 14:13:39;;;;;;;0.30;0.30;;;13.30;96.40;;;;;;4954763;29;20188;-69
2024/01/30 14:16:05;;;;;;;0.30;0.30;;;13.30;96.10;;;;;;4953494;28;20207;-70
2024/01/30 14:18:30;;;;;;;1.13;0.60;;;13.30;95.60;;;;;;4954277;29;20614;-69
2024/01/30 14:20:56;;;;;;;0.30;0.20;;;13.20;95.30;;;;;;4954590;29;20451;-69
2024/01/30 14:23:21;;;;;;;1.23;1.23;;;13.20;95.40;;;;;;4954506;29;20201;-70
2024/01/30 14:25:47;;;;;;;0.30;0.30;;;13.20;95.30;;;;;;4953428;28;20208;-69
2024/01/30 14:28:13;;;;;;;0.30;0.27;;;13.20;95.30;;;;;;4953993;29;20208;-70
2024/01/30 14:30:38;;;;;;;0.40;0.40;;;13.20;95.00;;;;;;4969553;28;20190;-69
2024/01/30 14:33:04;;;;;;;0.60;0.60;;;13.10;94.90;;;;;;4974042;28;20545;-69
2024/01/30 14:35:30;;;;;;;0.30;0.30;;;13.10;95.00;;;;;;4973367;28;20259;-69
2024/01/30 14:37:55;;;;;;;0.40;0.40;;;13.10;95.30;;;;;;4969602;28;20240;-69
2024/01/30 14:40:21;;;;;;;0.30;0.30;;;13.00;96.10;;;;;;4953738;28;20211;-68
2024/01/30 14:42:46;;;;;;;0.30;0.20;;;12.90;96.50;;;;;;4954398;29;20172;-69
2024/01/30 14:45:12;;;;;;;0.40;0.40;;;12.90;97.20;;;;;;4952128;28;20180;-68
2024/01/30 14:47:38;;;;;;;0.40;0.40;;;12.80;98.20;;;;;;4952240;28;20169;-69
2024/01/30 14:50:05;;;;;;;1.13;0.60;;;12.60;98.60;;;;;;4956176;28;20204;-67
2024/01/30 14:52:31;;;;;;;0.30;0.30;;;12.60;98.90;;;;;;4956228;29;20469;-68
2024/01/30 14:54:57;;;;;;;0.30;0.30;;;12.50;99.40;;;;;;4955687;29;20837;-68
2024/01/30 14:57:24;;;;;;;0.40;0.40;;;12.40;99.40;;;;;;4954759;29;20423;-68
2024/01/30 14:59:49;;;;;;;0.30;0.30;;;12.40;99.40;;;;;;4954656;28;20796;-69
2024/01/30 15:02:15;;;;;;;5.03;0.70;;;12.40;99.90;;;;;;4955876;29;20409;-69
2024/01/30 15:04:41;;;;;;;0.30;0.30;;;12.30;99.90;;;;;;4957188;29;20216;-69
2024/01/30 15:07:06;;;;;;;0.30;0.30;;;12.20;99.90;;;;;;4957273;28;20201;-67
2024/01/30 15:09:32;;;;;;;1.47;1.47;;;12.10;99.90;;;;;;4956170;28;20177;-68
2024/01/30 15:11:58;;;;;;;0.50;0.50;;;12.00;99.90;;;;;;4956112;29;20447;-69
2024/01/30 15:14:24;;;;;;;0.63;0.63;;;11.90;99.90;;;;;;4957083;29;20622;-68
2024/01/30 15:16:50;;;;;;;0.57;0.57;;;11.70;99.90;;;;;;4957431;28;20199;-68
2024/01/30 15:19:15;;;;;;;0.80;0.80;;;11.60;99.90;;;;;;4958483;28;20423;-69
2024/01/30 15:21:41;;;;;;;0.30;0.30;;;11.60;99.90;;;;;;4976533;28;20654;-68
2024/01/30 15:24:06;;;;;;;0.30;0.30;;;11.50;99.90;;;;;;4976313;28;20205;-68
2024/01/30 15:26:32;;;;;;;0.50;0.40;;;11.50;99.90;;;;;;4976320;28;20195;-69
2024/01/30 15:28:58;;;;;;;0.40;0.40;;;11.50;99.90;;;;;;4976548;28;20178;-68
2024/01/30 15:31:23;;;;;;;0.53;0.50;;;11.50;99.90;;;;;;4958779;28;20180;-69
2024/01/30 15:33:49;;;;;;;0.30;0.30;;;11.50;99.90;;;;;;4969622;28;20187;-68
2024/01/30 15:36:15;;;;;;;0.40;0.40;;;11.50;99.90;;;;;;4976049;28;20274;-68
2024/01/30 15:38:41;;;;;;;0.30;0.30;;;11.40;99.90;;;;;;4976364;28;20545;-69
2024/01/30 15:41:07;;;;;;;0.30;0.30;;;11.40;99.90;;;;;;4976305;28;20198;-68
2024/01/30 15:43:32;;;;;;;0.30;0.30;;;11.40;99.90;;;;;;4966509;28;20427;-69
2024/01/30 15:46:01;;;;;;;0.30;0.30;;;11.40;99.90;;;;;;4955414;28;20283;-69
2024/01/30 15:48:27;;;;;;;0.30;0.30;;;11.30;99.90;;;;;;4955588;29;20182;-67
2024/01/30 15:50:53;;;;;;;0.30;0.30;;;11.20;99.90;;;;;;4957067;29;20461;-69
2024/01/30 15:53:22;;;;;;;0.30;0.30;;;11.20;99.90;;;;;;4964023;28;20234;-69
2024/01/30 15:55:48;;;;;;;0.30;0.30;;;11.10;99.90;;;;;;4975678;28;20425;-69
2024/01/30 15:58:14;;;;;;;0.30;0.30;;;11.10;99.90;;;;;;4976041;28;20420;-69
2024/01/30 16:00:40;;;;;;;0.30;0.30;;;11.00;99.90;;;;;;4975417;28;20454;-69
2024/01/30 16:03:05;;;;;;;0.33;0.33;;;10.90;99.90;;;;;;4970106;28;21040;-69
2024/01/30 16:05:31;;;;;;;0.30;0.30;;;10.90;99.90;;;;;;4956139;28;20538;-68
2024/01/30 16:07:57;;;;;;;0.50;0.50;;;10.80;99.90;;;;;;4956345;29;20275;-69
2024/01/30 16:10:22;;;;;;;0.30;0.30;;;10.80;99.90;;;;;;4956469;29;20620;-69
2024/01/30 16:12:48;;;;;;;0.60;0.60;;;10.70;99.90;;;;;;4958973;28;20179;-69
2024/01/30 16:15:14;;;;;;;0.40;0.40;;;10.60;99.90;;;;;;4975251;28;20169;-69
2024/01/30 16:17:41;;;;;;;0.40;0.40;;;10.50;99.90;;;;;;4974665;28;20182;-69
2024/01/30 16:20:07;;;;;;;0.30;0.30;;;10.50;99.90;;;;;;4975299;28;20460;-69
2024/01/30 16:22:33;;;;;;;0.30;0.30;;;10.40;99.90;;;;;;4974846;28;20178;-69
2024/01/30 16:24:59;;;;;;;0.32;0.32;;;10.40;99.90;;;;;;4955943;28;20200;-69
2024/01/30 16:27:24;;;;;;;0.60;0.60;;;10.40;99.90;;;;;;4956570;29;20228;-69
2024/01/30 16:29:53;;;;;;;0.73;0.73;;;10.30;99.90;;;;;;4956329;29;20548;-69
2024/01/30 16:32:19;;;;;;;0.35;0.35;;;10.30;99.90;;;;;;4954409;29;20214;-69
2024/01/30 16:34:45;;;;;;;0.50;0.50;;;10.30;99.90;;;;;;4973156;28;20220;-63
2024/01/30 16:37:11;;;;;;;0.50;0.50;;;10.30;99.90;;;;;;4975162;28;20436;-64
2024/01/30 16:39:36;;;;;;;0.30;0.30;;;10.30;99.90;;;;;;4975305;28;20424;-67
2024/01/30 16:42:03;;;;;;;0.30;0.30;;;10.20;99.90;;;;;;4975040;28;20170;-63
2024/01/30 16:44:29;;;;;;;0.30;0.30;;;10.20;99.90;;;;;;4958732;28;20182;-64
2024/01/30 16:46:54;;;;;;;0.40;0.40;;;10.20;99.90;;;;;;4955776;28;20557;-64
2024/01/30 16:49:20;;;;;;;0.30;0.30;;;10.20;99.90;;;;;;4986684;28;20205;-65
2024/01/30 16:51:46;;;;;;;0.47;0.47;;;10.20;99.90;;;;;;4956663;29;20168;-64
2024/01/30 16:54:12;;;;;;;0.30;0.30;;;10.10;99.90;;;;;;4967845;28;20592;-65
2024/01/30 16:56:37;;;;;;;0.30;0.30;;;10.10;99.90;;;;;;4974920;28;20206;-63
2024/01/30 16:59:03;;;;;;;0.30;0.30;;;10.10;99.90;;;;;;4975080;28;20413;-64
2024/01/30 17:01:28;;;;;;;0.30;0.30;;;10.20;99.90;;;;;;4974555;28;20603;-63
2024/01/30 17:03:54;;;;;;;0.30;0.30;;;10.20;99.90;;;;;;4962131;28;20257;-64
2024/01/30 17:06:19;;;;;;;0.83;0.83;;;10.20;99.90;;;;;;4954770;28;20328;-64
2024/01/30 17:08:45;;;;;;;0.70;0.70;;;10.10;99.90;;;;;;4954938;28;20169;-65
2024/01/30 17:11:11;;;;;;;0.40;0.40;;;10.10;99.90;;;;;;4954789;28;20183;-65
2024/01/30 17:13:36;;;;;;;0.30;0.30;;;10.10;99.90;;;;;;4955392;29;20639;-65
2024/01/30 17:16:02;;;;;;;0.30;0.20;;;10.00;99.90;;;;;;4955047;28;20436;-65
2024/01/30 17:18:30;;;;;;;0.40;0.40;;;10.00;99.90;;;;;;4956418;28;20181;-65
2024/01/30 17:20:55;;;;;;;0.40;0.40;;;10.00;99.90;;;;;;4969044;28;20460;-64
2024/01/30 17:23:21;;;;;;;0.50;0.50;;;10.00;99.90;;;;;;4955459;29;20625;-66
2024/01/30 17:25:50;;;;;;;0.40;0.40;;;10.00;99.90;;;;;;4954974;28;20208;-66
2024/01/30 17:28:16;;;;;;;0.32;0.32;;;10.00;99.90;;;;;;4955140;29;20499;-69
2024/01/30 17:30:42;;;;;;;0.38;0.38;;;9.90;99.90;;;;;;4954569;28;20214;-68
2024/01/30 17:33:08;;;;;;;0.40;0.40;;;9.90;99.90;;;;;;4954220;29;20212;-66
2024/01/30 17:35:33;;;;;;;0.30;0.30;;;9.90;99.90;;;;;;4954271;28;20547;-67
2024/01/30 17:37:59;;;;;;;0.30;0.30;;;9.80;99.90;;;;;;4955062;29;20173;-65
2024/01/30 17:40:25;;;;;;;0.50;0.50;;;9.80;99.90;;;;;;4954535;28;20551;-67
2024/01/30 17:42:50;;;;;;;0.30;0.30;;;9.70;99.90;;;;;;4954913;29;20658;-67
2024/01/30 17:45:16;;;;;;;0.40;0.40;;;9.70;99.90;;;;;;4954125;28;20185;-67
2024/01/30 17:47:42;;;;;;;2.00;1.90;;;9.70;99.90;;;;;;4960913;28;20408;-67
2024/01/30 17:50:08;;;;;;;0.50;0.50;;;9.70;99.90;;;;;;4974103;28;20224;-67